createdAt,value
2018-03-18T00:00:50.690Z,0
2018-03-18T00:01:50.405Z,0
2018-03-18T00:02:50.623Z,0
2018-03-18T00:03:50.334Z,0
2018-03-18T00:04:50.551Z,0
2018-03-18T00:05:50.515Z,0
2018-03-18T00:06:50.480Z,0
2018-03-18T00:07:50.447Z,0
2018-03-18T00:08:50.408Z,0
2018-03-18T00:09:50.380Z,0
2018-03-18T00:10:50.345Z,0
2018-03-18T00:11:50.059Z,0
2018-03-18T00:12:50.269Z,0
2018-03-18T00:13:50.247Z,0
2018-03-18T00:14:50.200Z,0
2018-03-18T00:15:50.171Z,0
2018-03-18T00:16:49.914Z,0
2018-03-18T00:17:50.103Z,0
2018-03-18T00:18:50.067Z,0
2018-03-18T00:19:50.031Z,0
2018-03-18T00:20:50.002Z,0
2018-03-18T00:21:49.963Z,0
2018-03-18T00:22:49.944Z,0
2018-03-18T00:23:49.893Z,0
2018-03-18T00:24:49.860Z,0
2018-03-18T00:25:49.822Z,0
2018-03-18T00:26:49.539Z,0
2018-03-18T00:27:49.505Z,0
2018-03-18T00:28:49.722Z,0
2018-03-18T00:29:49.693Z,0
2018-03-18T00:30:49.665Z,0
2018-03-18T00:31:49.365Z,0
2018-03-18T00:32:49.588Z,0
2018-03-18T00:33:49.556Z,0
2018-03-18T00:34:49.564Z,0
2018-03-18T00:35:49.480Z,0
2018-03-18T00:36:49.439Z,0
2018-03-18T00:37:49.403Z,0
2018-03-18T00:38:49.374Z,0
2018-03-18T00:39:49.337Z,0
2018-03-18T00:40:49.309Z,0
2018-03-18T00:41:49.270Z,0
2018-03-18T00:42:49.235Z,0
2018-03-18T00:43:49.197Z,0
2018-03-18T00:44:49.179Z,0
2018-03-18T00:45:48.882Z,0
2018-03-18T00:46:49.096Z,0
2018-03-18T00:47:48.811Z,0
2018-03-18T00:48:49.037Z,0
2018-03-18T00:49:48.990Z,0
2018-03-18T00:50:48.992Z,0
2018-03-18T00:51:48.937Z,0
2018-03-18T00:52:48.887Z,0
2018-03-18T00:53:48.853Z,0
2018-03-18T00:54:48.823Z,0
2018-03-18T00:55:48.787Z,0
2018-03-18T00:56:48.501Z,0
2018-03-18T00:57:48.465Z,0
2018-03-18T00:58:48.430Z,0
2018-03-18T00:59:48.647Z,0
2018-03-18T01:00:48.364Z,0
2018-03-18T01:01:48.583Z,0
2018-03-18T01:02:48.290Z,0
2018-03-18T01:03:48.260Z,0
2018-03-18T01:04:48.505Z,0
2018-03-18T01:05:48.444Z,0
2018-03-18T01:06:48.403Z,0
2018-03-18T01:07:48.374Z,0
2018-03-18T01:08:48.332Z,0
2018-03-18T01:09:48.307Z,0
2018-03-18T01:10:48.275Z,0
2018-03-18T01:11:48.222Z,0
2018-03-18T01:12:48.243Z,0
2018-03-18T01:13:47.921Z,0
2018-03-18T01:14:48.169Z,0
2018-03-18T01:15:48.090Z,0
2018-03-18T01:16:48.058Z,0
2018-03-18T01:17:47.775Z,0
2018-03-18T01:18:47.741Z,0
2018-03-18T01:19:47.955Z,0
2018-03-18T01:20:47.959Z,0
2018-03-18T01:21:47.884Z,0
2018-03-18T01:22:47.600Z,0
2018-03-18T01:23:47.811Z,0
2018-03-18T01:24:47.783Z,0
2018-03-18T01:25:47.745Z,0
2018-03-18T01:26:47.462Z,0
2018-03-18T01:27:47.676Z,0
2018-03-18T01:28:47.643Z,0
2018-03-18T01:29:47.608Z,0
2018-03-18T01:30:47.570Z,0
2018-03-18T01:31:47.534Z,0
2018-03-18T01:32:47.255Z,0
2018-03-18T01:33:47.470Z,0
2018-03-18T01:34:47.429Z,0
2018-03-18T01:35:47.148Z,0
2018-03-18T01:36:47.363Z,0
2018-03-18T01:37:47.323Z,0
2018-03-18T01:38:47.298Z,0
2018-03-18T01:39:47.273Z,0
2018-03-18T01:40:47.228Z,0
2018-03-18T01:41:47.186Z,0
2018-03-18T01:42:47.157Z,0
2018-03-18T01:43:47.144Z,0
2018-03-18T01:44:47.086Z,0
2018-03-18T01:45:47.048Z,0
2018-03-18T01:46:46.761Z,0
2018-03-18T01:47:46.985Z,0
2018-03-18T01:48:46.944Z,0
2018-03-18T01:49:46.660Z,0
2018-03-18T01:50:46.875Z,0
2018-03-18T01:51:46.839Z,0
2018-03-18T01:52:46.807Z,0
2018-03-18T01:53:46.527Z,0
2018-03-18T01:54:46.748Z,0
2018-03-18T01:55:46.698Z,0
2018-03-18T01:56:46.416Z,0
2018-03-18T01:57:46.378Z,0
2018-03-18T01:58:46.347Z,0
2018-03-18T01:59:46.562Z,0
2018-03-18T02:00:46.530Z,0
2018-03-18T02:01:46.511Z,0
2018-03-18T02:02:46.458Z,0
2018-03-18T02:03:46.170Z,0
2018-03-18T02:04:46.395Z,0
2018-03-18T02:05:46.367Z,0
2018-03-18T02:06:46.325Z,0
2018-03-18T02:07:46.037Z,0
2018-03-18T02:08:46.253Z,0
2018-03-18T02:09:46.211Z,0
2018-03-18T02:10:46.178Z,0
2018-03-18T02:11:46.140Z,0
2018-03-18T02:12:45.610Z,0
2018-03-18T02:13:46.534Z,0
2018-03-18T02:14:46.160Z,0
2018-03-18T02:15:46.004Z,0
2018-03-18T02:16:45.969Z,0
2018-03-18T02:17:45.940Z,0
2018-03-18T02:18:45.650Z,0
2018-03-18T02:19:45.860Z,0
2018-03-18T02:20:45.835Z,0
2018-03-18T02:21:45.793Z,0
2018-03-18T02:22:45.759Z,0
2018-03-18T02:23:45.724Z,0
2018-03-18T02:24:45.691Z,0
2018-03-18T02:25:45.650Z,0
2018-03-18T02:26:45.625Z,0
2018-03-18T02:27:45.586Z,0
2018-03-18T02:28:45.557Z,0
2018-03-18T02:29:45.516Z,0
2018-03-18T02:30:45.484Z,0
2018-03-18T02:31:45.451Z,0
2018-03-18T02:32:45.419Z,0
2018-03-18T02:33:45.385Z,0
2018-03-18T02:34:45.342Z,0
2018-03-18T02:35:45.300Z,0
2018-03-18T02:36:45.276Z,0
2018-03-18T02:37:45.241Z,0
2018-03-18T02:38:45.200Z,0
2018-03-18T02:39:44.913Z,0
2018-03-18T02:40:45.131Z,0
2018-03-18T02:41:44.852Z,0
2018-03-18T02:42:45.074Z,0
2018-03-18T02:43:45.022Z,0
2018-03-18T02:44:44.988Z,0
2018-03-18T02:45:44.953Z,0
2018-03-18T02:46:44.931Z,0
2018-03-18T02:47:44.885Z,0
2018-03-18T02:48:44.620Z,0
2018-03-18T02:49:44.828Z,0
2018-03-18T02:50:44.785Z,0
2018-03-18T02:51:44.745Z,0
2018-03-18T02:52:44.713Z,0
2018-03-18T02:53:44.672Z,0
2018-03-18T02:54:44.747Z,0
2018-03-18T02:55:44.609Z,0
2018-03-18T02:56:44.564Z,0
2018-03-18T02:57:44.288Z,0
2018-03-18T02:58:44.496Z,0
2018-03-18T02:59:44.228Z,0
2018-03-18T03:00:44.451Z,0
2018-03-18T03:01:44.410Z,0
2018-03-18T03:02:44.355Z,0
2018-03-18T03:03:44.327Z,0
2018-03-18T03:04:43.793Z,0
2018-03-18T03:05:44.255Z,0
2018-03-18T03:06:44.218Z,0
2018-03-18T03:07:44.201Z,0
2018-03-18T03:08:43.899Z,0
2018-03-18T03:09:44.106Z,0
2018-03-18T03:10:44.088Z,0
2018-03-18T03:11:44.049Z,0
2018-03-18T03:12:44.003Z,0
2018-03-18T03:13:43.720Z,0
2018-03-18T03:14:43.686Z,0
2018-03-18T03:15:43.410Z,0
2018-03-18T03:16:43.867Z,0
2018-03-18T03:17:43.826Z,0
2018-03-18T03:18:43.796Z,0
2018-03-18T03:19:43.758Z,0
2018-03-18T03:20:43.724Z,0
2018-03-18T03:21:43.693Z,0
2018-03-18T03:22:43.409Z,0
2018-03-18T03:23:43.375Z,0
2018-03-18T03:24:43.592Z,0
2018-03-18T03:25:43.593Z,0
2018-03-18T03:26:43.517Z,0
2018-03-18T03:27:43.476Z,0
2018-03-18T03:28:43.200Z,0
2018-03-18T03:29:43.159Z,0
2018-03-18T03:30:43.385Z,0
2018-03-18T03:31:43.353Z,0
2018-03-18T03:32:43.328Z,0
2018-03-18T03:33:43.277Z,0
2018-03-18T03:34:43.239Z,0
2018-03-18T03:35:43.202Z,0
2018-03-18T03:36:43.168Z,0
2018-03-18T03:37:43.132Z,0
2018-03-18T03:38:42.849Z,0
2018-03-18T03:39:43.066Z,0
2018-03-18T03:40:43.027Z,0
2018-03-18T03:41:42.743Z,0
2018-03-18T03:42:42.705Z,0
2018-03-18T03:43:42.672Z,0
2018-03-18T03:44:42.884Z,0
2018-03-18T03:45:42.856Z,0
2018-03-18T03:46:42.819Z,0
2018-03-18T03:47:42.542Z,0
2018-03-18T03:48:42.546Z,0
2018-03-18T03:49:42.713Z,0
2018-03-18T03:50:42.434Z,0
2018-03-18T03:51:42.649Z,0
2018-03-18T03:52:42.606Z,0
2018-03-18T03:53:42.577Z,0
2018-03-18T03:54:42.537Z,0
2018-03-18T03:55:42.524Z,0
2018-03-18T03:56:42.465Z,0
2018-03-18T03:57:42.439Z,0
2018-03-18T03:58:42.399Z,0
2018-03-18T03:59:42.365Z,0
2018-03-18T04:00:42.327Z,0
2018-03-18T04:01:42.305Z,0
2018-03-18T04:02:42.255Z,0
2018-03-18T04:03:42.282Z,0
2018-03-18T04:04:42.188Z,0
2018-03-18T04:05:42.147Z,0
2018-03-18T04:06:42.116Z,0
2018-03-18T04:07:42.086Z,0
2018-03-18T04:08:41.803Z,0
2018-03-18T04:09:42.014Z,0
2018-03-18T04:10:41.977Z,0
2018-03-18T04:11:41.709Z,0
2018-03-18T04:12:41.915Z,0
2018-03-18T04:13:41.884Z,0
2018-03-18T04:14:41.590Z,0
2018-03-18T04:15:41.553Z,0
2018-03-18T04:16:41.780Z,0
2018-03-18T04:17:41.738Z,0
2018-03-18T04:18:41.451Z,0
2018-03-18T04:19:41.668Z,0
2018-03-18T04:20:41.629Z,0
2018-03-18T04:21:41.593Z,0
2018-03-18T04:22:41.309Z,0
2018-03-18T04:23:41.533Z,0
2018-03-18T04:24:41.494Z,0
2018-03-18T04:25:41.452Z,0
2018-03-18T04:26:41.417Z,0
2018-03-18T04:27:41.383Z,0
2018-03-18T04:28:41.349Z,0
2018-03-18T04:29:41.321Z,0
2018-03-18T04:30:41.291Z,0
2018-03-18T04:31:41.242Z,0
2018-03-18T04:32:41.209Z,0
2018-03-18T04:33:41.177Z,0
2018-03-18T04:34:41.142Z,0
2018-03-18T04:35:40.607Z,0
2018-03-18T04:36:41.075Z,0
2018-03-18T04:37:41.031Z,0
2018-03-18T04:38:40.752Z,0
2018-03-18T04:39:40.760Z,0
2018-03-18T04:40:40.701Z,0
2018-03-18T04:41:40.891Z,0
2018-03-18T04:42:40.609Z,0
2018-03-18T04:43:40.830Z,0
2018-03-18T04:44:40.785Z,0
2018-03-18T04:45:40.504Z,0
2018-03-18T04:46:40.720Z,0
2018-03-18T04:47:40.678Z,0
2018-03-18T04:48:40.648Z,0
2018-03-18T04:49:40.612Z,0
2018-03-18T04:50:40.598Z,0
2018-03-18T04:51:40.297Z,0
2018-03-18T04:52:40.512Z,0
2018-03-18T04:53:40.227Z,0
2018-03-18T04:54:40.437Z,0
2018-03-18T04:55:40.412Z,0
2018-03-18T04:56:40.364Z,0
2018-03-18T04:57:40.086Z,0
2018-03-18T04:58:40.289Z,0
2018-03-18T04:59:40.012Z,0
2018-03-18T05:00:40.233Z,0
2018-03-18T05:01:40.197Z,0
2018-03-18T05:02:40.158Z,0
2018-03-18T05:03:39.868Z,0
2018-03-18T05:04:40.096Z,0
2018-03-18T05:05:40.056Z,0
2018-03-18T05:06:39.766Z,0
2018-03-18T05:07:39.983Z,0
2018-03-18T05:08:39.955Z,0
2018-03-18T05:09:39.661Z,4
2018-03-18T05:10:39.629Z,4
2018-03-18T05:11:39.842Z,4
2018-03-18T05:12:39.807Z,4
2018-03-18T05:13:39.774Z,4
2018-03-18T05:14:39.732Z,8
2018-03-18T05:15:39.445Z,4
2018-03-18T05:16:39.742Z,8
2018-03-18T05:17:39.628Z,8
2018-03-18T05:18:39.593Z,12
2018-03-18T05:19:39.552Z,12
2018-03-18T05:20:39.532Z,12
2018-03-18T05:21:39.607Z,16
2018-03-18T05:22:39.450Z,20
2018-03-18T05:23:39.521Z,24
2018-03-18T05:24:39.131Z,28
2018-03-18T05:25:39.345Z,32
2018-03-18T05:26:39.309Z,40
2018-03-18T05:27:39.282Z,40
2018-03-18T05:28:39.236Z,48
2018-03-18T05:29:39.208Z,56
2018-03-18T05:30:39.170Z,64
2018-03-18T05:31:39.132Z,72
2018-03-18T05:32:39.101Z,84
2018-03-18T05:33:39.060Z,88
2018-03-18T05:34:38.782Z,100
2018-03-18T05:35:39.003Z,116
2018-03-18T05:36:38.711Z,132
2018-03-18T05:37:38.674Z,144
2018-03-18T05:38:38.636Z,156
2018-03-18T05:39:38.848Z,172
2018-03-18T05:40:38.808Z,192
2018-03-18T05:41:38.532Z,204
2018-03-18T05:42:38.497Z,228
2018-03-18T05:43:38.734Z,252
2018-03-18T05:44:38.669Z,280
2018-03-18T05:45:38.637Z,312
2018-03-18T05:46:38.604Z,344
2018-03-18T05:47:38.565Z,380
2018-03-18T05:48:38.288Z,416
2018-03-18T05:49:38.250Z,452
2018-03-18T05:50:38.462Z,488
2018-03-18T05:51:38.436Z,524
2018-03-18T05:52:38.144Z,568
2018-03-18T05:53:38.363Z,612
2018-03-18T05:54:38.318Z,668
2018-03-18T05:55:38.285Z,696
2018-03-18T05:56:38.244Z,764
2018-03-18T05:57:38.215Z,824
2018-03-18T05:58:38.179Z,876
2018-03-18T05:59:38.162Z,956
2018-03-18T06:00:37.867Z,1044
2018-03-18T06:01:38.076Z,1088
2018-03-18T06:02:38.044Z,1124
2018-03-18T06:03:37.760Z,1212
2018-03-18T06:04:37.975Z,1320
2018-03-18T06:05:37.935Z,1384
2018-03-18T06:06:37.658Z,1436
2018-03-18T06:07:37.615Z,1460
2018-03-18T06:08:37.585Z,1460
2018-03-18T06:09:37.796Z,1528
2018-03-18T06:10:37.768Z,1608
2018-03-18T06:11:37.721Z,1676
2018-03-18T06:12:37.830Z,1748
2018-03-18T06:13:37.406Z,1856
2018-03-18T06:14:37.620Z,1940
2018-03-18T06:15:37.582Z,1880
2018-03-18T06:16:37.548Z,1864
2018-03-18T06:17:37.521Z,1900
2018-03-18T06:18:37.473Z,2004
2018-03-18T06:19:37.448Z,2104
2018-03-18T06:20:37.161Z,2164
2018-03-18T06:21:37.371Z,2236
2018-03-18T06:22:37.339Z,2248
2018-03-18T06:23:37.301Z,2244
2018-03-18T06:24:37.271Z,2268
2018-03-18T06:25:36.979Z,2272
2018-03-18T06:26:37.193Z,2284
2018-03-18T06:27:37.166Z,2344
2018-03-18T06:28:37.171Z,2432
2018-03-18T06:29:37.092Z,2464
2018-03-18T06:30:37.059Z,2512
2018-03-18T06:31:37.045Z,2492
2018-03-18T06:32:36.991Z,2508
2018-03-18T06:33:36.958Z,2600
2018-03-18T06:34:36.924Z,2692
2018-03-18T06:35:36.953Z,2680
2018-03-18T06:36:36.845Z,2676
2018-03-18T06:37:36.968Z,2812
2018-03-18T06:38:36.827Z,2768
2018-03-18T06:39:36.756Z,2812
2018-03-18T06:40:36.709Z,2892
2018-03-18T06:41:36.436Z,3092
2018-03-18T06:42:36.143Z,3196
2018-03-18T06:43:36.352Z,3404
2018-03-18T06:44:36.569Z,3512
2018-03-18T06:45:36.038Z,3580
2018-03-18T06:46:36.249Z,3548
2018-03-18T06:47:36.471Z,3644
2018-03-18T06:48:36.433Z,3708
2018-03-18T06:49:36.395Z,3728
2018-03-18T06:50:36.359Z,3760
2018-03-18T06:51:36.330Z,3800
2018-03-18T06:52:36.291Z,3860
2018-03-18T06:53:36.261Z,3964
2018-03-18T06:54:36.277Z,3952
2018-03-18T06:55:36.187Z,3952
2018-03-18T06:56:36.355Z,4016
2018-03-18T06:57:36.122Z,4060
2018-03-18T06:58:36.084Z,4120
2018-03-18T06:59:35.836Z,4192
2018-03-18T07:00:36.010Z,4244
2018-03-18T07:01:36.035Z,4328
2018-03-18T07:02:35.947Z,4432
2018-03-18T07:03:35.660Z,4572
2018-03-18T07:04:35.628Z,4676
2018-03-18T07:05:35.838Z,4780
2018-03-18T07:06:35.559Z,4940
2018-03-18T07:07:35.780Z,5124
2018-03-18T07:08:35.732Z,5332
2018-03-18T07:09:35.708Z,5504
2018-03-18T07:10:35.666Z,5640
2018-03-18T07:11:35.636Z,5816
2018-03-18T07:12:35.590Z,6032
2018-03-18T07:13:35.571Z,6220
2018-03-18T07:14:35.286Z,6368
2018-03-18T07:15:35.000Z,6492
2018-03-18T07:16:35.206Z,6700
2018-03-18T07:17:35.182Z,6936
2018-03-18T07:18:35.399Z,7128
2018-03-18T07:19:35.356Z,7284
2018-03-18T07:20:35.322Z,7600
2018-03-18T07:21:35.042Z,7936
2018-03-18T07:22:34.755Z,8300
2018-03-18T07:23:34.978Z,8684
2018-03-18T07:24:35.184Z,9020
2018-03-18T07:25:35.320Z,9136
2018-03-18T07:26:35.123Z,9496
2018-03-18T07:27:35.081Z,9924
2018-03-18T07:28:35.051Z,10136
2018-03-18T07:29:35.017Z,10336
2018-03-18T07:30:34.980Z,10660
2018-03-18T07:31:34.957Z,10872
2018-03-18T07:32:34.911Z,10932
2018-03-18T07:33:34.879Z,11144
2018-03-18T07:34:34.852Z,11348
2018-03-18T07:35:34.806Z,11496
2018-03-18T07:36:34.335Z,11472
2018-03-18T07:37:34.743Z,11680
2018-03-18T07:38:34.547Z,11576
2018-03-18T07:39:34.427Z,11672
2018-03-18T07:40:34.644Z,11692
2018-03-18T07:41:34.361Z,11820
2018-03-18T07:42:34.592Z,11804
2018-03-18T07:43:34.548Z,11812
2018-03-18T07:44:34.256Z,11896
2018-03-18T07:45:34.470Z,11828
2018-03-18T07:46:34.435Z,11672
2018-03-18T07:47:33.904Z,11636
2018-03-18T07:48:34.368Z,11548
2018-03-18T07:49:34.092Z,11624
2018-03-18T07:50:34.476Z,11752
2018-03-18T07:51:34.270Z,11796
2018-03-18T07:52:34.240Z,11828
2018-03-18T07:53:34.202Z,11784
2018-03-18T07:54:33.929Z,11596
2018-03-18T07:55:33.889Z,11508
2018-03-18T07:56:34.103Z,11520
2018-03-18T07:57:33.823Z,11688
2018-03-18T07:58:33.792Z,11752
2018-03-18T07:59:33.758Z,11940
2018-03-18T08:00:33.974Z,12284
2018-03-18T08:01:33.689Z,12628
2018-03-18T08:02:33.912Z,12908
2018-03-18T08:03:33.627Z,13060
2018-03-18T08:04:33.836Z,13060
2018-03-18T08:05:33.831Z,13264
2018-03-18T08:06:33.770Z,13604
2018-03-18T08:07:33.906Z,13964
2018-03-18T08:08:33.709Z,14016
2018-03-18T08:09:33.428Z,14224
2018-03-18T08:10:33.742Z,14420
2018-03-18T08:11:33.633Z,14584
2018-03-18T08:12:33.327Z,14892
2018-03-18T08:13:33.746Z,14924
2018-03-18T08:14:33.695Z,15148
2018-03-18T08:15:33.486Z,15376
2018-03-18T08:16:33.445Z,15544
2018-03-18T08:17:33.163Z,15868
2018-03-18T08:18:33.383Z,16160
2018-03-18T08:19:33.351Z,16268
2018-03-18T08:20:33.308Z,16500
2018-03-18T08:21:33.281Z,16960
2018-03-18T08:22:33.250Z,17440
2018-03-18T08:23:32.966Z,17824
2018-03-18T08:24:32.932Z,18016
2018-03-18T08:25:33.147Z,17952
2018-03-18T08:26:33.134Z,17760
2018-03-18T08:27:33.084Z,17696
2018-03-18T08:28:33.050Z,17920
2018-03-18T08:29:33.032Z,18400
2018-03-18T08:30:32.991Z,18720
2018-03-18T08:31:32.707Z,18848
2018-03-18T08:32:32.925Z,18464
2018-03-18T08:33:32.901Z,18080
2018-03-18T08:34:32.612Z,17824
2018-03-18T08:35:32.581Z,17116
2018-03-18T08:36:32.794Z,16612
2018-03-18T08:37:32.762Z,16468
2018-03-18T08:38:32.733Z,16640
2018-03-18T08:39:32.461Z,16812
2018-03-18T08:40:32.675Z,16824
2018-03-18T08:41:32.733Z,16796
2018-03-18T08:42:32.606Z,16796
2018-03-18T08:43:32.322Z,16876
2018-03-18T08:44:32.290Z,16996
2018-03-18T08:45:32.512Z,16980
2018-03-18T08:46:32.232Z,17080
2018-03-18T08:47:32.449Z,17600
2018-03-18T08:48:32.413Z,18080
2018-03-18T08:49:32.385Z,18592
2018-03-18T08:50:32.100Z,18976
2018-03-18T08:51:32.068Z,19264
2018-03-18T08:52:32.421Z,19648
2018-03-18T08:53:32.262Z,19776
2018-03-18T08:54:32.221Z,20288
2018-03-18T08:55:32.190Z,20672
2018-03-18T08:56:32.155Z,21120
2018-03-18T08:57:32.130Z,20960
2018-03-18T08:58:32.092Z,20800
2018-03-18T08:59:31.814Z,20384
2018-03-18T09:00:32.028Z,20224
2018-03-18T09:01:31.997Z,20320
2018-03-18T09:02:31.964Z,20576
2018-03-18T09:03:31.704Z,20864
2018-03-18T09:04:31.907Z,21376
2018-03-18T09:05:31.878Z,22112
2018-03-18T09:06:31.838Z,22528
2018-03-18T09:07:31.811Z,22496
2018-03-18T09:08:31.543Z,22720
2018-03-18T09:09:31.744Z,22848
2018-03-18T09:10:31.470Z,23072
2018-03-18T09:11:31.742Z,23840
2018-03-18T09:12:31.650Z,24864
2018-03-18T09:13:31.620Z,26432
2018-03-18T09:14:31.349Z,27168
2018-03-18T09:15:31.640Z,28128
2018-03-18T09:16:31.278Z,28256
2018-03-18T09:17:31.502Z,28064
2018-03-18T09:18:31.467Z,27872
2018-03-18T09:19:31.193Z,27360
2018-03-18T09:20:31.407Z,27136
2018-03-18T09:21:31.123Z,26944
2018-03-18T09:22:31.369Z,26240
2018-03-18T09:23:31.350Z,25408
2018-03-18T09:24:30.781Z,24576
2018-03-18T09:25:31.266Z,24320
2018-03-18T09:26:31.219Z,23584
2018-03-18T09:27:31.189Z,22976
2018-03-18T09:28:31.192Z,22368
2018-03-18T09:29:31.138Z,21536
2018-03-18T09:30:31.097Z,20128
2018-03-18T09:31:31.067Z,18752
2018-03-18T09:32:30.795Z,17632
2018-03-18T09:33:31.008Z,17336
2018-03-18T09:34:30.727Z,17464
2018-03-18T09:35:30.946Z,16616
2018-03-18T09:36:30.914Z,16024
2018-03-18T09:37:30.884Z,15900
2018-03-18T09:38:30.879Z,16176
2018-03-18T09:39:30.593Z,16376
2018-03-18T09:40:30.547Z,16596
2018-03-18T09:41:30.512Z,16640
2018-03-18T09:42:30.734Z,16608
2018-03-18T09:43:30.697Z,16664
2018-03-18T09:44:30.673Z,16668
2018-03-18T09:45:30.697Z,16992
2018-03-18T09:46:30.605Z,16684
2018-03-18T09:47:30.578Z,16272
2018-03-18T09:48:30.555Z,15764
2018-03-18T09:49:30.256Z,15208
2018-03-18T09:50:30.713Z,14828
2018-03-18T09:51:30.876Z,15020
2018-03-18T09:52:30.171Z,15632
2018-03-18T09:53:29.939Z,16204
2018-03-18T09:54:29.877Z,16224
2018-03-18T09:55:30.398Z,15868
2018-03-18T09:56:30.687Z,15516
2018-03-18T09:57:29.797Z,15388
2018-03-18T09:58:30.306Z,15528
2018-03-18T09:59:30.017Z,15792
2018-03-18T10:00:30.174Z,16260
2018-03-18T10:01:30.125Z,17032
2018-03-18T10:02:30.112Z,18144
2018-03-18T10:03:29.816Z,19232
2018-03-18T10:04:29.535Z,20352
2018-03-18T10:05:29.756Z,21152
2018-03-18T10:06:29.718Z,21408
2018-03-18T10:07:29.944Z,21216
2018-03-18T10:08:29.901Z,20896
2018-03-18T10:09:29.873Z,20864
2018-03-18T10:10:29.589Z,20960
2018-03-18T10:11:29.318Z,21056
2018-03-18T10:12:29.532Z,21088
2018-03-18T10:13:29.752Z,20704
2018-03-18T10:14:29.720Z,20064
2018-03-18T10:15:29.440Z,19616
2018-03-18T10:16:29.655Z,19552
2018-03-18T10:17:29.618Z,19808
2018-03-18T10:18:29.606Z,20192
2018-03-18T10:19:29.316Z,20672
2018-03-18T10:20:29.532Z,21088
2018-03-18T10:21:32.236Z,21472
2018-03-18T10:22:29.470Z,21792
2018-03-18T10:23:29.439Z,22048
2018-03-18T10:24:29.405Z,22112
2018-03-18T10:25:29.371Z,22176
2018-03-18T10:26:29.341Z,21952
2018-03-18T10:27:29.056Z,21312
2018-03-18T10:28:29.524Z,20608
2018-03-18T10:29:29.190Z,20192
2018-03-18T10:30:29.222Z,20064
2018-03-18T10:31:29.188Z,20128
2018-03-18T10:32:29.164Z,20416
2018-03-18T10:33:29.133Z,20640
2018-03-18T10:34:28.598Z,20800
2018-03-18T10:35:29.069Z,21152
2018-03-18T10:36:29.052Z,21472
2018-03-18T10:37:29.461Z,21824
2018-03-18T10:38:28.970Z,22272
2018-03-18T10:39:28.697Z,22912
2018-03-18T10:40:28.960Z,23552
2018-03-18T10:41:28.884Z,24256
2018-03-18T10:42:28.356Z,24800
2018-03-18T10:43:28.820Z,25056
2018-03-18T10:44:28.803Z,25120
2018-03-18T10:45:28.509Z,24960
2018-03-18T10:46:28.481Z,24576
2018-03-18T10:47:28.696Z,23968
2018-03-18T10:48:28.663Z,23648
2018-03-18T10:49:28.679Z,23456
2018-03-18T10:50:28.608Z,23424
2018-03-18T10:51:28.324Z,23520
2018-03-18T10:52:28.548Z,23392
2018-03-18T10:53:28.756Z,23136
2018-03-18T10:54:29.786Z,23072
2018-03-18T10:55:28.465Z,22272
2018-03-18T10:56:28.427Z,21728
2018-03-18T10:57:28.397Z,21504
2018-03-18T10:58:27.869Z,21600
2018-03-18T10:59:28.141Z,21792
2018-03-18T11:00:28.304Z,21600
2018-03-18T11:01:28.274Z,21536
2018-03-18T11:02:28.249Z,21280
2018-03-18T11:03:28.212Z,21568
2018-03-18T11:04:28.189Z,21664
2018-03-18T11:05:28.154Z,22016
2018-03-18T11:06:28.124Z,21760
2018-03-18T11:07:27.594Z,21920
2018-03-18T11:08:28.068Z,22048
2018-03-18T11:09:27.800Z,22496
2018-03-18T11:10:28.012Z,23072
2018-03-18T11:11:27.971Z,23424
2018-03-18T11:12:27.960Z,24032
2018-03-18T11:13:27.926Z,24512
2018-03-18T11:14:27.389Z,25280
2018-03-18T11:15:27.360Z,25472
2018-03-18T11:16:27.872Z,25792
2018-03-18T11:17:27.780Z,26144
2018-03-18T11:18:27.765Z,26560
2018-03-18T11:19:27.478Z,27424
2018-03-18T11:20:27.697Z,27520
2018-03-18T11:21:27.664Z,27456
2018-03-18T11:22:27.638Z,27392
2018-03-18T11:23:27.611Z,27712
2018-03-18T11:24:27.615Z,27232
2018-03-18T11:25:27.562Z,27040
2018-03-18T11:26:27.525Z,26880
2018-03-18T11:27:27.251Z,26976
2018-03-18T11:28:27.209Z,27136
2018-03-18T11:29:27.436Z,26816
2018-03-18T11:30:27.400Z,26144
2018-03-18T11:31:27.119Z,25792
2018-03-18T11:32:27.356Z,25504
2018-03-18T11:33:27.066Z,25056
2018-03-18T11:34:27.291Z,25120
2018-03-18T11:35:27.010Z,24960
2018-03-18T11:36:27.041Z,24832
2018-03-18T11:37:27.222Z,25088
2018-03-18T11:38:27.258Z,25440
2018-03-18T11:39:26.888Z,25504
2018-03-18T11:40:27.248Z,25504
2018-03-18T11:41:27.153Z,25120
2018-03-18T11:42:27.110Z,24736
2018-03-18T11:43:26.870Z,23872
2018-03-18T11:44:26.810Z,23616
2018-03-18T11:45:27.064Z,23968
2018-03-18T11:46:26.940Z,23584
2018-03-18T11:47:26.917Z,23744
2018-03-18T11:48:26.629Z,24000
2018-03-18T11:49:26.614Z,24384
2018-03-18T11:50:26.817Z,24480
2018-03-18T11:51:26.800Z,24224
2018-03-18T11:52:26.761Z,23776
2018-03-18T11:53:26.739Z,23392
2018-03-18T11:54:26.588Z,23360
2018-03-18T11:55:26.676Z,23488
2018-03-18T11:56:26.646Z,23584
2018-03-18T11:57:26.622Z,23296
2018-03-18T11:58:26.339Z,23040
2018-03-18T11:59:26.071Z,22880
2018-03-18T12:00:26.542Z,22912
2018-03-18T12:01:26.253Z,22880
2018-03-18T12:02:26.482Z,22688
2018-03-18T12:03:26.453Z,22624
2018-03-18T12:04:26.171Z,22528
2018-03-18T12:05:26.392Z,22656
2018-03-18T12:06:26.392Z,22848
2018-03-18T12:07:26.333Z,22912
2018-03-18T12:08:26.300Z,22720
2018-03-18T12:09:26.274Z,22848
2018-03-18T12:10:26.252Z,22784
2018-03-18T12:11:25.967Z,22656
2018-03-18T12:12:26.188Z,22240
2018-03-18T12:13:26.153Z,21696
2018-03-18T12:14:26.121Z,21312
2018-03-18T12:15:26.095Z,20864
2018-03-18T12:16:25.821Z,20960
2018-03-18T12:17:26.038Z,21056
2018-03-18T12:18:26.070Z,20384
2018-03-18T12:19:26.106Z,19776
2018-03-18T12:20:25.955Z,19392
2018-03-18T12:21:25.668Z,18912
2018-03-18T12:22:25.649Z,18528
2018-03-18T12:23:25.889Z,17780
2018-03-18T12:24:25.603Z,17532
2018-03-18T12:25:25.549Z,17368
2018-03-18T12:26:25.769Z,16916
2018-03-18T12:27:25.776Z,16464
2018-03-18T12:28:25.208Z,15936
2018-03-18T12:29:25.691Z,15220
2018-03-18T12:30:25.650Z,14556
2018-03-18T12:31:25.371Z,14220
2018-03-18T12:32:25.355Z,14304
2018-03-18T12:33:25.064Z,14464
2018-03-18T12:34:25.531Z,14648
2018-03-18T12:35:25.493Z,14792
2018-03-18T12:36:25.478Z,14940
2018-03-18T12:37:25.436Z,15128
2018-03-18T12:38:25.417Z,15268
2018-03-18T12:39:25.376Z,15364
2018-03-18T12:40:25.100Z,15316
2018-03-18T12:41:25.319Z,15388
2018-03-18T12:42:25.294Z,15584
2018-03-18T12:43:25.255Z,15716
2018-03-18T12:44:25.229Z,16068
2018-03-18T12:45:25.199Z,16392
2018-03-18T12:46:24.924Z,16604
2018-03-18T12:47:24.889Z,16716
2018-03-18T12:48:25.179Z,16752
2018-03-18T12:49:25.079Z,16804
2018-03-18T12:50:24.805Z,16908
2018-03-18T12:51:25.015Z,17044
2018-03-18T12:52:24.990Z,17132
2018-03-18T12:53:24.963Z,17276
2018-03-18T12:54:24.943Z,17544
2018-03-18T12:55:25.078Z,17884
2018-03-18T12:56:24.878Z,18108
2018-03-18T12:57:24.690Z,18096
2018-03-18T12:58:24.864Z,17952
2018-03-18T12:59:24.880Z,18080
2018-03-18T13:00:24.806Z,18784
2018-03-18T13:01:24.821Z,19008
2018-03-18T13:02:24.691Z,18880
2018-03-18T13:03:24.662Z,18624
2018-03-18T13:04:24.651Z,17920
2018-03-18T13:05:24.602Z,17692
2018-03-18T13:06:24.568Z,17212
2018-03-18T13:07:24.297Z,16348
2018-03-18T13:08:24.512Z,15528
2018-03-18T13:09:24.481Z,14832
2018-03-18T13:10:24.507Z,14452
2018-03-18T13:11:24.422Z,14124
2018-03-18T13:12:24.152Z,13924
2018-03-18T13:13:24.115Z,13716
2018-03-18T13:14:24.335Z,13596
2018-03-18T13:15:24.301Z,13400
2018-03-18T13:16:24.280Z,12940
2018-03-18T13:17:24.249Z,12648
2018-03-18T13:18:24.275Z,12492
2018-03-18T13:19:24.187Z,12456
2018-03-18T13:20:23.902Z,12420
2018-03-18T13:21:24.133Z,12364
2018-03-18T13:22:24.102Z,12272
2018-03-18T13:23:24.069Z,12176
2018-03-18T13:24:23.787Z,11996
2018-03-18T13:25:24.008Z,11896
2018-03-18T13:26:23.485Z,11872
2018-03-18T13:27:23.703Z,11780
2018-03-18T13:28:23.671Z,11688
2018-03-18T13:29:23.889Z,11600
2018-03-18T13:30:23.863Z,11536
2018-03-18T13:31:23.953Z,11444
2018-03-18T13:32:23.302Z,11352
2018-03-18T13:33:23.762Z,11256
2018-03-18T13:34:23.742Z,11176
2018-03-18T13:35:23.734Z,11212
2018-03-18T13:36:23.671Z,11224
2018-03-18T13:37:23.662Z,11232
2018-03-18T13:38:23.621Z,11236
2018-03-18T13:39:23.583Z,11216